sensor_id;sensor_type;location;lat;lon;timestamp;P1;durP1;ratioP1;P2;durP2;ratioP2
5343;SDS011;2694;48.954;8.928;2023-09-30T00:01:21;3.10;;;1.70;;
5343;SDS011;2694;48.954;8.928;2023-09-30T00:03:49;2.28;;;1.20;;
5343;SDS011;2694;48.954;8.928;2023-09-30T00:06:16;4.35;;;1.50;;
5343;SDS011;2694;48.954;8.928;2023-09-30T00:08:43;2.90;;;1.33;;
5343;SDS011;2694;48.954;8.928;2023-09-30T00:11:10;5.28;;;1.30;;
5343;SDS011;2694;48.954;8.928;2023-09-30T00:13:37;2.23;;;1.30;;
5343;SDS011;2694;48.954;8.928;2023-09-30T00:16:04;2.83;;;1.35;;
5343;SDS011;2694;48.954;8.928;2023-09-30T00:18:31;4.25;;;1.40;;
5343;SDS011;2694;48.954;8.928;2023-09-30T00:21:00;3.42;;;1.50;;
5343;SDS011;2694;48.954;8.928;2023-09-30T00:23:27;3.63;;;1.63;;
5343;SDS011;2694;48.954;8.928;2023-09-30T00:25:54;3.60;;;1.55;;
5343;SDS011;2694;48.954;8.928;2023-09-30T00:28:21;3.28;;;1.60;;
5343;SDS011;2694;48.954;8.928;2023-09-30T00:30:48;3.58;;;1.58;;
5343;SDS011;2694;48.954;8.928;2023-09-30T00:33:15;3.35;;;1.60;;
5343;SDS011;2694;48.954;8.928;2023-09-30T00:35:42;4.55;;;1.50;;
5343;SDS011;2694;48.954;8.928;2023-09-30T00:38:10;2.83;;;1.20;;
5343;SDS011;2694;48.954;8.928;2023-09-30T00:40:37;3.33;;;1.60;;
5343;SDS011;2694;48.954;8.928;2023-09-30T00:43:04;3.90;;;1.43;;
5343;SDS011;2694;48.954;8.928;2023-09-30T00:45:30;5.55;;;1.95;;
5343;SDS011;2694;48.954;8.928;2023-09-30T00:47:57;4.50;;;1.40;;
5343;SDS011;2694;48.954;8.928;2023-09-30T00:50:24;3.35;;;1.70;;
5343;SDS011;2694;48.954;8.928;2023-09-30T00:52:52;4.57;;;1.70;;
5343;SDS011;2694;48.954;8.928;2023-09-30T00:55:20;4.68;;;1.83;;
5343;SDS011;2694;48.954;8.928;2023-09-30T00:57:47;4.95;;;1.67;;
5343;SDS011;2694;48.954;8.928;2023-09-30T01:00:15;3.85;;;1.60;;
5343;SDS011;2694;48.954;8.928;2023-09-30T01:02:44;5.28;;;1.90;;
5343;SDS011;2694;48.954;8.928;2023-09-30T01:05:11;4.18;;;1.70;;
5343;SDS011;2694;48.954;8.928;2023-09-30T01:07:38;5.50;;;1.80;;
5343;SDS011;2694;48.954;8.928;2023-09-30T01:10:05;6.23;;;1.97;;
5343;SDS011;2694;48.954;8.928;2023-09-30T01:12:34;5.00;;;1.80;;
5343;SDS011;2694;48.954;8.928;2023-09-30T01:15:02;3.67;;;1.60;;
5343;SDS011;2694;48.954;8.928;2023-09-30T01:17:30;5.25;;;2.03;;
5343;SDS011;2694;48.954;8.928;2023-09-30T01:19:57;4.53;;;1.90;;
5343;SDS011;2694;48.954;8.928;2023-09-30T01:22:26;5.50;;;1.98;;
5343;SDS011;2694;48.954;8.928;2023-09-30T01:24:55;4.10;;;2.20;;
5343;SDS011;2694;48.954;8.928;2023-09-30T01:27:22;5.55;;;2.10;;
5343;SDS011;2694;48.954;8.928;2023-09-30T01:29:48;4.18;;;1.90;;
5343;SDS011;2694;48.954;8.928;2023-09-30T01:32:15;4.70;;;2.00;;
5343;SDS011;2694;48.954;8.928;2023-09-30T01:34:42;6.78;;;1.90;;
5343;SDS011;2694;48.954;8.928;2023-09-30T01:37:09;5.90;;;1.90;;
5343;SDS011;2694;48.954;8.928;2023-09-30T01:39:37;5.45;;;2.08;;
5343;SDS011;2694;48.954;8.928;2023-09-30T01:42:04;4.75;;;2.28;;
5343;SDS011;2694;48.954;8.928;2023-09-30T01:44:31;5.28;;;2.13;;
5343;SDS011;2694;48.954;8.928;2023-09-30T01:46:58;3.38;;;1.70;;
5343;SDS011;2694;48.954;8.928;2023-09-30T01:49:26;4.40;;;1.50;;
5343;SDS011;2694;48.954;8.928;2023-09-30T01:51:53;3.50;;;2.00;;
5343;SDS011;2694;48.954;8.928;2023-09-30T01:54:19;7.13;;;2.00;;
5343;SDS011;2694;48.954;8.928;2023-09-30T01:56:48;2.85;;;1.70;;
5343;SDS011;2694;48.954;8.928;2023-09-30T01:59:15;4.72;;;1.95;;
5343;SDS011;2694;48.954;8.928;2023-09-30T02:01:43;3.50;;;1.75;;
5343;SDS011;2694;48.954;8.928;2023-09-30T02:04:11;5.80;;;2.10;;
5343;SDS011;2694;48.954;8.928;2023-09-30T02:06:38;3.08;;;1.70;;
5343;SDS011;2694;48.954;8.928;2023-09-30T02:09:05;2.83;;;1.50;;
5343;SDS011;2694;48.954;8.928;2023-09-30T02:11:33;5.57;;;1.85;;
5343;SDS011;2694;48.954;8.928;2023-09-30T02:14:03;3.33;;;1.52;;
5343;SDS011;2694;48.954;8.928;2023-09-30T02:16:32;4.82;;;2.33;;
5343;SDS011;2694;48.954;8.928;2023-09-30T02:18:58;5.68;;;2.40;;
5343;SDS011;2694;48.954;8.928;2023-09-30T02:21:25;4.70;;;2.22;;
5343;SDS011;2694;48.954;8.928;2023-09-30T02:23:53;4.60;;;2.10;;
5343;SDS011;2694;48.954;8.928;2023-09-30T02:26:21;4.50;;;1.80;;
5343;SDS011;2694;48.954;8.928;2023-09-30T02:28:50;5.15;;;2.45;;
5343;SDS011;2694;48.954;8.928;2023-09-30T02:31:19;4.43;;;2.15;;
5343;SDS011;2694;48.954;8.928;2023-09-30T02:33:46;3.88;;;2.03;;
5343;SDS011;2694;48.954;8.928;2023-09-30T02:36:13;3.83;;;1.88;;
5343;SDS011;2694;48.954;8.928;2023-09-30T02:38:40;4.18;;;1.88;;
5343;SDS011;2694;48.954;8.928;2023-09-30T02:41:08;6.28;;;2.30;;
5343;SDS011;2694;48.954;8.928;2023-09-30T02:43:35;4.55;;;1.88;;
5343;SDS011;2694;48.954;8.928;2023-09-30T02:46:03;4.90;;;2.40;;
5343;SDS011;2694;48.954;8.928;2023-09-30T02:48:31;4.25;;;2.20;;
5343;SDS011;2694;48.954;8.928;2023-09-30T02:50:58;6.77;;;2.40;;
5343;SDS011;2694;48.954;8.928;2023-09-30T02:53:25;5.63;;;2.13;;
5343;SDS011;2694;48.954;8.928;2023-09-30T02:55:52;6.38;;;2.28;;
5343;SDS011;2694;48.954;8.928;2023-09-30T02:58:21;4.38;;;2.00;;
5343;SDS011;2694;48.954;8.928;2023-09-30T03:00:48;4.97;;;2.55;;
5343;SDS011;2694;48.954;8.928;2023-09-30T03:03:15;6.20;;;2.47;;
5343;SDS011;2694;48.954;8.928;2023-09-30T03:05:44;5.28;;;2.60;;
5343;SDS011;2694;48.954;8.928;2023-09-30T03:08:12;5.75;;;2.28;;
5343;SDS011;2694;48.954;8.928;2023-09-30T03:10:39;4.82;;;2.40;;
5343;SDS011;2694;48.954;8.928;2023-09-30T03:13:06;4.03;;;2.30;;
5343;SDS011;2694;48.954;8.928;2023-09-30T03:15:34;5.75;;;1.90;;
5343;SDS011;2694;48.954;8.928;2023-09-30T03:18:01;5.80;;;2.08;;
5343;SDS011;2694;48.954;8.928;2023-09-30T03:20:29;3.67;;;2.13;;
5343;SDS011;2694;48.954;8.928;2023-09-30T03:22:57;6.57;;;2.40;;
5343;SDS011;2694;48.954;8.928;2023-09-30T03:25:25;7.05;;;2.10;;
5343;SDS011;2694;48.954;8.928;2023-09-30T03:27:52;5.03;;;1.90;;
5343;SDS011;2694;48.954;8.928;2023-09-30T03:30:19;5.07;;;2.30;;
5343;SDS011;2694;48.954;8.928;2023-09-30T03:32:46;3.92;;;2.20;;
5343;SDS011;2694;48.954;8.928;2023-09-30T03:35:13;5.35;;;2.20;;
5343;SDS011;2694;48.954;8.928;2023-09-30T03:37:45;10.27;;;2.88;;
5343;SDS011;2694;48.954;8.928;2023-09-30T03:40:13;4.87;;;2.60;;
5343;SDS011;2694;48.954;8.928;2023-09-30T03:42:44;5.20;;;2.70;;
5343;SDS011;2694;48.954;8.928;2023-09-30T03:45:14;5.03;;;2.25;;
5343;SDS011;2694;48.954;8.928;2023-09-30T03:47:41;7.40;;;2.50;;
5343;SDS011;2694;48.954;8.928;2023-09-30T03:50:09;5.80;;;2.63;;
5343;SDS011;2694;48.954;8.928;2023-09-30T03:52:39;5.70;;;2.30;;
5343;SDS011;2694;48.954;8.928;2023-09-30T03:55:09;6.65;;;1.67;;
5343;SDS011;2694;48.954;8.928;2023-09-30T03:57:38;5.75;;;1.50;;
5343;SDS011;2694;48.954;8.928;2023-09-30T04:00:05;3.83;;;2.10;;
5343;SDS011;2694;48.954;8.928;2023-09-30T04:02:41;3.72;;;1.90;;
5343;SDS011;2694;48.954;8.928;2023-09-30T04:05:08;5.75;;;1.98;;
5343;SDS011;2694;48.954;8.928;2023-09-30T04:07:36;3.72;;;1.95;;
5343;SDS011;2694;48.954;8.928;2023-09-30T04:10:03;7.30;;;2.60;;
5343;SDS011;2694;48.954;8.928;2023-09-30T04:12:31;2.97;;;1.95;;
5343;SDS011;2694;48.954;8.928;2023-09-30T04:14:59;5.60;;;2.10;;
5343;SDS011;2694;48.954;8.928;2023-09-30T04:17:29;4.75;;;2.25;;
5343;SDS011;2694;48.954;8.928;2023-09-30T04:19:56;3.38;;;2.00;;
5343;SDS011;2694;48.954;8.928;2023-09-30T04:22:23;5.78;;;2.72;;
5343;SDS011;2694;48.954;8.928;2023-09-30T04:24:54;4.88;;;2.15;;
5343;SDS011;2694;48.954;8.928;2023-09-30T04:27:21;5.53;;;2.80;;
5343;SDS011;2694;48.954;8.928;2023-09-30T04:29:48;12.18;;;2.70;;
5343;SDS011;2694;48.954;8.928;2023-09-30T04:32:17;6.80;;;2.83;;
5343;SDS011;2694;48.954;8.928;2023-09-30T04:34:44;4.70;;;2.43;;
5343;SDS011;2694;48.954;8.928;2023-09-30T04:37:12;8.40;;;2.58;;
5343;SDS011;2694;48.954;8.928;2023-09-30T04:39:39;5.78;;;2.70;;
5343;SDS011;2694;48.954;8.928;2023-09-30T04:42:05;7.80;;;2.50;;
5343;SDS011;2694;48.954;8.928;2023-09-30T04:44:36;4.20;;;2.20;;
5343;SDS011;2694;48.954;8.928;2023-09-30T04:47:03;7.82;;;2.50;;
5343;SDS011;2694;48.954;8.928;2023-09-30T04:49:32;3.63;;;1.95;;
5343;SDS011;2694;48.954;8.928;2023-09-30T04:51:59;5.13;;;2.47;;
5343;SDS011;2694;48.954;8.928;2023-09-30T04:54:25;3.63;;;2.00;;
5343;SDS011;2694;48.954;8.928;2023-09-30T04:56:54;6.35;;;2.50;;
5343;SDS011;2694;48.954;8.928;2023-09-30T04:59:21;4.78;;;2.80;;
5343;SDS011;2694;48.954;8.928;2023-09-30T05:01:50;6.85;;;2.42;;
5343;SDS011;2694;48.954;8.928;2023-09-30T05:04:16;3.80;;;2.20;;
5343;SDS011;2694;48.954;8.928;2023-09-30T05:06:45;5.40;;;2.30;;
5343;SDS011;2694;48.954;8.928;2023-09-30T05:09:12;6.63;;;2.80;;
5343;SDS011;2694;48.954;8.928;2023-09-30T05:11:39;7.10;;;2.70;;
5343;SDS011;2694;48.954;8.928;2023-09-30T05:14:05;6.10;;;2.80;;
5343;SDS011;2694;48.954;8.928;2023-09-30T05:16:32;4.95;;;2.67;;
5343;SDS011;2694;48.954;8.928;2023-09-30T05:18:59;4.15;;;2.10;;
5343;SDS011;2694;48.954;8.928;2023-09-30T05:21:26;6.77;;;2.87;;
5343;SDS011;2694;48.954;8.928;2023-09-30T05:23:54;6.57;;;3.13;;
5343;SDS011;2694;48.954;8.928;2023-09-30T05:26:21;4.37;;;2.40;;
5343;SDS011;2694;48.954;8.928;2023-09-30T05:28:48;5.63;;;2.60;;
5343;SDS011;2694;48.954;8.928;2023-09-30T05:31:15;7.25;;;2.90;;
5343;SDS011;2694;48.954;8.928;2023-09-30T05:33:42;4.47;;;2.40;;
5343;SDS011;2694;48.954;8.928;2023-09-30T05:36:09;6.18;;;3.10;;
5343;SDS011;2694;48.954;8.928;2023-09-30T05:38:38;5.60;;;3.25;;
5343;SDS011;2694;48.954;8.928;2023-09-30T05:41:06;5.45;;;2.40;;
5343;SDS011;2694;48.954;8.928;2023-09-30T05:43:33;5.50;;;2.57;;
5343;SDS011;2694;48.954;8.928;2023-09-30T05:46:00;5.15;;;3.13;;
5343;SDS011;2694;48.954;8.928;2023-09-30T05:48:27;7.50;;;2.50;;
5343;SDS011;2694;48.954;8.928;2023-09-30T05:50:54;5.43;;;2.20;;
5343;SDS011;2694;48.954;8.928;2023-09-30T05:53:21;4.78;;;2.70;;
5343;SDS011;2694;48.954;8.928;2023-09-30T05:55:50;7.37;;;2.50;;
5343;SDS011;2694;48.954;8.928;2023-09-30T05:58:18;4.28;;;2.47;;
5343;SDS011;2694;48.954;8.928;2023-09-30T06:00:45;8.00;;;3.10;;
5343;SDS011;2694;48.954;8.928;2023-09-30T06:03:12;6.22;;;3.00;;
5343;SDS011;2694;48.954;8.928;2023-09-30T06:05:39;7.60;;;2.90;;
5343;SDS011;2694;48.954;8.928;2023-09-30T06:08:07;6.57;;;2.90;;
5343;SDS011;2694;48.954;8.928;2023-09-30T06:10:35;9.98;;;2.80;;
5343;SDS011;2694;48.954;8.928;2023-09-30T06:13:03;8.77;;;3.17;;
5343;SDS011;2694;48.954;8.928;2023-09-30T06:15:32;6.05;;;2.50;;
5343;SDS011;2694;48.954;8.928;2023-09-30T06:17:59;5.53;;;2.70;;
5343;SDS011;2694;48.954;8.928;2023-09-30T06:20:25;5.22;;;2.60;;
5343;SDS011;2694;48.954;8.928;2023-09-30T06:22:55;8.07;;;2.80;;
5343;SDS011;2694;48.954;8.928;2023-09-30T06:25:23;7.53;;;2.88;;
5343;SDS011;2694;48.954;8.928;2023-09-30T06:27:50;4.93;;;2.80;;
5343;SDS011;2694;48.954;8.928;2023-09-30T06:30:17;5.63;;;3.00;;
5343;SDS011;2694;48.954;8.928;2023-09-30T06:32:46;5.75;;;2.60;;
5343;SDS011;2694;48.954;8.928;2023-09-30T06:35:13;6.32;;;2.75;;
5343;SDS011;2694;48.954;8.928;2023-09-30T06:37:41;6.80;;;2.50;;
5343;SDS011;2694;48.954;8.928;2023-09-30T06:40:10;7.88;;;2.90;;
5343;SDS011;2694;48.954;8.928;2023-09-30T06:42:37;5.18;;;2.47;;
5343;SDS011;2694;48.954;8.928;2023-09-30T06:45:06;5.97;;;2.80;;
5343;SDS011;2694;48.954;8.928;2023-09-30T06:47:35;7.57;;;2.90;;
5343;SDS011;2694;48.954;8.928;2023-09-30T06:50:05;9.07;;;3.72;;
5343;SDS011;2694;48.954;8.928;2023-09-30T06:52:37;7.83;;;3.17;;
5343;SDS011;2694;48.954;8.928;2023-09-30T06:55:05;7.43;;;3.65;;
5343;SDS011;2694;48.954;8.928;2023-09-30T06:57:33;7.80;;;4.35;;
5343;SDS011;2694;48.954;8.928;2023-09-30T07:00:01;6.90;;;3.05;;
5343;SDS011;2694;48.954;8.928;2023-09-30T07:02:30;8.15;;;2.90;;
5343;SDS011;2694;48.954;8.928;2023-09-30T07:04:57;5.68;;;2.72;;
5343;SDS011;2694;48.954;8.928;2023-09-30T07:07:25;8.93;;;3.35;;
5343;SDS011;2694;48.954;8.928;2023-09-30T07:09:52;7.00;;;3.17;;
5343;SDS011;2694;48.954;8.928;2023-09-30T07:12:19;8.55;;;3.22;;
5343;SDS011;2694;48.954;8.928;2023-09-30T07:14:46;10.77;;;4.40;;
5343;SDS011;2694;48.954;8.928;2023-09-30T07:17:13;8.60;;;3.83;;
5343;SDS011;2694;48.954;8.928;2023-09-30T07:19:40;12.75;;;3.35;;
5343;SDS011;2694;48.954;8.928;2023-09-30T07:22:07;10.80;;;3.60;;
5343;SDS011;2694;48.954;8.928;2023-09-30T07:24:35;9.95;;;4.13;;
5343;SDS011;2694;48.954;8.928;2023-09-30T07:27:02;9.55;;;3.95;;
5343;SDS011;2694;48.954;8.928;2023-09-30T07:29:29;9.68;;;4.47;;
5343;SDS011;2694;48.954;8.928;2023-09-30T07:31:55;8.88;;;5.05;;
5343;SDS011;2694;48.954;8.928;2023-09-30T07:34:22;10.93;;;4.07;;
5343;SDS011;2694;48.954;8.928;2023-09-30T07:36:49;8.15;;;3.92;;
5343;SDS011;2694;48.954;8.928;2023-09-30T07:39:16;10.73;;;4.40;;
5343;SDS011;2694;48.954;8.928;2023-09-30T07:41:45;8.32;;;4.25;;
5343;SDS011;2694;48.954;8.928;2023-09-30T07:44:12;10.18;;;3.85;;
5343;SDS011;2694;48.954;8.928;2023-09-30T07:46:39;12.55;;;4.60;;
5343;SDS011;2694;48.954;8.928;2023-09-30T07:49:07;9.07;;;3.78;;
5343;SDS011;2694;48.954;8.928;2023-09-30T07:51:34;11.30;;;4.33;;
5343;SDS011;2694;48.954;8.928;2023-09-30T07:54:01;8.77;;;3.70;;
5343;SDS011;2694;48.954;8.928;2023-09-30T07:56:29;8.80;;;3.70;;
5343;SDS011;2694;48.954;8.928;2023-09-30T07:58:57;10.27;;;4.10;;
5343;SDS011;2694;48.954;8.928;2023-09-30T08:01:24;7.32;;;3.55;;
5343;SDS011;2694;48.954;8.928;2023-09-30T08:03:51;10.60;;;3.80;;
5343;SDS011;2694;48.954;8.928;2023-09-30T08:06:18;10.00;;;3.80;;
5343;SDS011;2694;48.954;8.928;2023-09-30T08:08:44;9.60;;;2.88;;
5343;SDS011;2694;48.954;8.928;2023-09-30T08:11:12;8.80;;;4.28;;
5343;SDS011;2694;48.954;8.928;2023-09-30T08:13:39;9.13;;;3.90;;
5343;SDS011;2694;48.954;8.928;2023-09-30T08:16:07;9.10;;;3.33;;
5343;SDS011;2694;48.954;8.928;2023-09-30T08:18:34;13.07;;;3.60;;
5343;SDS011;2694;48.954;8.928;2023-09-30T08:21:01;7.50;;;3.40;;
5343;SDS011;2694;48.954;8.928;2023-09-30T08:23:29;8.45;;;3.05;;
5343;SDS011;2694;48.954;8.928;2023-09-30T08:25:57;8.32;;;3.25;;
5343;SDS011;2694;48.954;8.928;2023-09-30T08:28:24;7.75;;;3.25;;
5343;SDS011;2694;48.954;8.928;2023-09-30T08:30:51;8.90;;;3.13;;
5343;SDS011;2694;48.954;8.928;2023-09-30T08:33:23;9.98;;;3.53;;
5343;SDS011;2694;48.954;8.928;2023-09-30T08:35:52;10.18;;;3.40;;
5343;SDS011;2694;48.954;8.928;2023-09-30T08:38:20;11.13;;;4.00;;
5343;SDS011;2694;48.954;8.928;2023-09-30T08:40:47;8.48;;;3.60;;
5343;SDS011;2694;48.954;8.928;2023-09-30T08:43:18;8.57;;;3.25;;
5343;SDS011;2694;48.954;8.928;2023-09-30T08:45:49;9.18;;;2.92;;
5343;SDS011;2694;48.954;8.928;2023-09-30T08:48:19;7.65;;;2.60;;
5343;SDS011;2694;48.954;8.928;2023-09-30T08:50:49;6.47;;;2.70;;
5343;SDS011;2694;48.954;8.928;2023-09-30T08:53:18;9.60;;;3.13;;
5343;SDS011;2694;48.954;8.928;2023-09-30T08:55:46;12.35;;;3.17;;
5343;SDS011;2694;48.954;8.928;2023-09-30T08:58:14;8.85;;;2.78;;
5343;SDS011;2694;48.954;8.928;2023-09-30T09:00:42;8.68;;;2.92;;
5343;SDS011;2694;48.954;8.928;2023-09-30T09:03:10;10.93;;;3.30;;
5343;SDS011;2694;48.954;8.928;2023-09-30T09:05:36;10.10;;;3.38;;
5343;SDS011;2694;48.954;8.928;2023-09-30T09:08:05;13.15;;;3.30;;
5343;SDS011;2694;48.954;8.928;2023-09-30T09:10:33;6.50;;;2.63;;
5343;SDS011;2694;48.954;8.928;2023-09-30T09:13:00;6.13;;;2.55;;
5343;SDS011;2694;48.954;8.928;2023-09-30T09:15:28;10.32;;;2.70;;
5343;SDS011;2694;48.954;8.928;2023-09-30T09:17:55;8.35;;;3.00;;
5343;SDS011;2694;48.954;8.928;2023-09-30T09:20:24;7.80;;;2.67;;
5343;SDS011;2694;48.954;8.928;2023-09-30T09:22:52;8.10;;;3.17;;
5343;SDS011;2694;48.954;8.928;2023-09-30T09:25:22;9.23;;;2.70;;
5343;SDS011;2694;48.954;8.928;2023-09-30T09:27:50;10.23;;;2.90;;
5343;SDS011;2694;48.954;8.928;2023-09-30T09:30:18;6.90;;;2.50;;
5343;SDS011;2694;48.954;8.928;2023-09-30T09:32:53;7.65;;;2.90;;
5343;SDS011;2694;48.954;8.928;2023-09-30T09:35:22;7.70;;;3.15;;
5343;SDS011;2694;48.954;8.928;2023-09-30T09:37:56;7.65;;;2.58;;
5343;SDS011;2694;48.954;8.928;2023-09-30T09:40:26;8.00;;;2.90;;
5343;SDS011;2694;48.954;8.928;2023-09-30T09:42:53;9.35;;;4.50;;
5343;SDS011;2694;48.954;8.928;2023-09-30T09:45:21;9.20;;;2.53;;
5343;SDS011;2694;48.954;8.928;2023-09-30T09:47:49;5.45;;;2.28;;
5343;SDS011;2694;48.954;8.928;2023-09-30T09:50:17;7.00;;;2.60;;
5343;SDS011;2694;48.954;8.928;2023-09-30T09:52:46;6.20;;;2.50;;
5343;SDS011;2694;48.954;8.928;2023-09-30T09:55:14;8.07;;;2.55;;
5343;SDS011;2694;48.954;8.928;2023-09-30T09:57:44;6.82;;;2.45;;
5343;SDS011;2694;48.954;8.928;2023-09-30T10:00:12;7.45;;;2.17;;
5343;SDS011;2694;48.954;8.928;2023-09-30T10:02:41;8.07;;;2.70;;
5343;SDS011;2694;48.954;8.928;2023-09-30T10:05:08;5.75;;;2.33;;
5343;SDS011;2694;48.954;8.928;2023-09-30T10:07:37;6.25;;;2.30;;
5343;SDS011;2694;48.954;8.928;2023-09-30T10:10:10;6.88;;;2.42;;
5343;SDS011;2694;48.954;8.928;2023-09-30T10:12:40;6.40;;;2.50;;
5343;SDS011;2694;48.954;8.928;2023-09-30T10:18:08;6.78;;;2.40;;
5343;SDS011;2694;48.954;8.928;2023-09-30T10:20:37;6.97;;;2.72;;
5343;SDS011;2694;48.954;8.928;2023-09-30T10:23:17;9.55;;;3.10;;
5343;SDS011;2694;48.954;8.928;2023-09-30T10:25:51;7.32;;;2.40;;
5343;SDS011;2694;48.954;8.928;2023-09-30T10:28:32;7.53;;;2.50;;
5343;SDS011;2694;48.954;8.928;2023-09-30T10:31:15;6.35;;;2.25;;
5343;SDS011;2694;48.954;8.928;2023-09-30T10:36:48;7.57;;;2.70;;
5343;SDS011;2694;48.954;8.928;2023-09-30T10:45:17;10.00;;;3.78;;
5343;SDS011;2694;48.954;8.928;2023-09-30T10:51:09;8.73;;;3.13;;
5343;SDS011;2694;48.954;8.928;2023-09-30T10:53:44;8.13;;;3.10;;
5343;SDS011;2694;48.954;8.928;2023-09-30T10:56:12;9.85;;;3.00;;
5343;SDS011;2694;48.954;8.928;2023-09-30T10:58:43;11.13;;;3.95;;
5343;SDS011;2694;48.954;8.928;2023-09-30T11:01:12;9.37;;;2.80;;
5343;SDS011;2694;48.954;8.928;2023-09-30T11:03:41;8.63;;;2.80;;
5343;SDS011;2694;48.954;8.928;2023-09-30T11:06:10;11.85;;;3.58;;
5343;SDS011;2694;48.954;8.928;2023-09-30T11:08:44;8.23;;;2.70;;
5343;SDS011;2694;48.954;8.928;2023-09-30T11:11:12;8.70;;;3.13;;
5343;SDS011;2694;48.954;8.928;2023-09-30T11:13:40;7.00;;;3.10;;
5343;SDS011;2694;48.954;8.928;2023-09-30T11:16:06;8.53;;;2.90;;
5343;SDS011;2694;48.954;8.928;2023-09-30T11:18:33;10.18;;;2.65;;
5343;SDS011;2694;48.954;8.928;2023-09-30T11:21:04;6.40;;;2.45;;
5343;SDS011;2694;48.954;8.928;2023-09-30T11:23:33;10.20;;;2.60;;
5343;SDS011;2694;48.954;8.928;2023-09-30T11:26:00;5.85;;;2.70;;
5343;SDS011;2694;48.954;8.928;2023-09-30T11:28:35;7.93;;;2.80;;
5343;SDS011;2694;48.954;8.928;2023-09-30T11:31:07;7.53;;;2.80;;
5343;SDS011;2694;48.954;8.928;2023-09-30T11:33:49;7.85;;;2.83;;
5343;SDS011;2694;48.954;8.928;2023-09-30T11:36:19;11.57;;;3.30;;
5343;SDS011;2694;48.954;8.928;2023-09-30T11:38:47;10.07;;;2.92;;
5343;SDS011;2694;48.954;8.928;2023-09-30T11:41:15;9.90;;;3.17;;
5343;SDS011;2694;48.954;8.928;2023-09-30T11:43:57;7.95;;;4.05;;
5343;SDS011;2694;48.954;8.928;2023-09-30T11:46:26;8.63;;;3.33;;
5343;SDS011;2694;48.954;8.928;2023-09-30T11:48:56;10.93;;;3.55;;
5343;SDS011;2694;48.954;8.928;2023-09-30T11:51:26;10.93;;;3.30;;
5343;SDS011;2694;48.954;8.928;2023-09-30T11:53:53;8.85;;;2.90;;
5343;SDS011;2694;48.954;8.928;2023-09-30T11:56:21;10.77;;;3.38;;
5343;SDS011;2694;48.954;8.928;2023-09-30T11:58:53;11.07;;;3.85;;
5343;SDS011;2694;48.954;8.928;2023-09-30T12:01:19;10.25;;;4.00;;
5343;SDS011;2694;48.954;8.928;2023-09-30T12:03:47;10.90;;;4.22;;
5343;SDS011;2694;48.954;8.928;2023-09-30T12:06:14;12.30;;;3.70;;
5343;SDS011;2694;48.954;8.928;2023-09-30T12:08:42;11.60;;;4.43;;
5343;SDS011;2694;48.954;8.928;2023-09-30T12:11:10;10.27;;;3.47;;
5343;SDS011;2694;48.954;8.928;2023-09-30T12:13:38;10.45;;;3.45;;
5343;SDS011;2694;48.954;8.928;2023-09-30T12:16:05;10.67;;;3.17;;
5343;SDS011;2694;48.954;8.928;2023-09-30T12:18:32;10.88;;;3.85;;
5343;SDS011;2694;48.954;8.928;2023-09-30T12:20:59;9.07;;;2.97;;
5343;SDS011;2694;48.954;8.928;2023-09-30T12:23:27;12.35;;;3.83;;
5343;SDS011;2694;48.954;8.928;2023-09-30T12:25:55;10.05;;;3.60;;
5343;SDS011;2694;48.954;8.928;2023-09-30T12:28:22;11.32;;;2.90;;
5343;SDS011;2694;48.954;8.928;2023-09-30T12:30:49;10.43;;;3.45;;
5343;SDS011;2694;48.954;8.928;2023-09-30T12:33:17;8.02;;;3.40;;
5343;SDS011;2694;48.954;8.928;2023-09-30T12:35:44;15.40;;;5.88;;
5343;SDS011;2694;48.954;8.928;2023-09-30T12:38:11;13.70;;;3.90;;
5343;SDS011;2694;48.954;8.928;2023-09-30T12:40:38;10.57;;;3.60;;
5343;SDS011;2694;48.954;8.928;2023-09-30T12:43:06;9.82;;;3.50;;
5343;SDS011;2694;48.954;8.928;2023-09-30T12:45:33;10.40;;;3.67;;
5343;SDS011;2694;48.954;8.928;2023-09-30T12:48:00;11.20;;;4.10;;
5343;SDS011;2694;48.954;8.928;2023-09-30T12:50:27;12.57;;;4.82;;
5343;SDS011;2694;48.954;8.928;2023-09-30T12:52:53;11.50;;;3.70;;
5343;SDS011;2694;48.954;8.928;2023-09-30T12:55:20;9.73;;;3.20;;
5343;SDS011;2694;48.954;8.928;2023-09-30T12:57:47;9.75;;;3.05;;
5343;SDS011;2694;48.954;8.928;2023-09-30T13:00:16;11.32;;;3.38;;
5343;SDS011;2694;48.954;8.928;2023-09-30T13:02:44;11.18;;;4.30;;
5343;SDS011;2694;48.954;8.928;2023-09-30T13:05:11;14.07;;;4.65;;
5343;SDS011;2694;48.954;8.928;2023-09-30T13:07:38;8.77;;;3.22;;
5343;SDS011;2694;48.954;8.928;2023-09-30T13:10:05;9.15;;;3.08;;
5343;SDS011;2694;48.954;8.928;2023-09-30T13:12:33;10.13;;;3.55;;
5343;SDS011;2694;48.954;8.928;2023-09-30T13:15:00;10.15;;;3.63;;
5343;SDS011;2694;48.954;8.928;2023-09-30T13:17:28;11.43;;;3.20;;
5343;SDS011;2694;48.954;8.928;2023-09-30T13:19:55;13.52;;;3.70;;
5343;SDS011;2694;48.954;8.928;2023-09-30T13:22:22;8.97;;;3.50;;
5343;SDS011;2694;48.954;8.928;2023-09-30T13:24:49;9.33;;;3.70;;
5343;SDS011;2694;48.954;8.928;2023-09-30T13:27:16;10.57;;;4.22;;
5343;SDS011;2694;48.954;8.928;2023-09-30T13:29:43;11.10;;;4.30;;
5343;SDS011;2694;48.954;8.928;2023-09-30T13:32:11;8.82;;;3.03;;
5343;SDS011;2694;48.954;8.928;2023-09-30T13:34:40;10.82;;;3.90;;
5343;SDS011;2694;48.954;8.928;2023-09-30T13:37:07;12.27;;;4.20;;
5343;SDS011;2694;48.954;8.928;2023-09-30T13:39:34;9.70;;;3.78;;
5343;SDS011;2694;48.954;8.928;2023-09-30T13:42:01;10.05;;;3.60;;
5343;SDS011;2694;48.954;8.928;2023-09-30T13:44:27;10.05;;;3.75;;
5343;SDS011;2694;48.954;8.928;2023-09-30T13:46:54;9.77;;;3.70;;
5343;SDS011;2694;48.954;8.928;2023-09-30T13:49:21;9.85;;;3.63;;
5343;SDS011;2694;48.954;8.928;2023-09-30T13:51:49;15.10;;;4.07;;
5343;SDS011;2694;48.954;8.928;2023-09-30T13:54:16;11.30;;;3.47;;
5343;SDS011;2694;48.954;8.928;2023-09-30T13:56:43;10.13;;;3.30;;
5343;SDS011;2694;48.954;8.928;2023-09-30T13:59:10;9.80;;;3.50;;
5343;SDS011;2694;48.954;8.928;2023-09-30T14:01:36;10.57;;;3.50;;
5343;SDS011;2694;48.954;8.928;2023-09-30T14:04:06;10.50;;;3.40;;
5343;SDS011;2694;48.954;8.928;2023-09-30T14:06:33;14.70;;;4.10;;
5343;SDS011;2694;48.954;8.928;2023-09-30T14:09:01;11.52;;;3.60;;
5343;SDS011;2694;48.954;8.928;2023-09-30T14:11:29;9.45;;;3.55;;
5343;SDS011;2694;48.954;8.928;2023-09-30T14:13:56;7.85;;;3.15;;
5343;SDS011;2694;48.954;8.928;2023-09-30T14:16:22;12.50;;;4.15;;
5343;SDS011;2694;48.954;8.928;2023-09-30T14:18:49;11.60;;;4.20;;
5343;SDS011;2694;48.954;8.928;2023-09-30T14:21:16;11.27;;;4.18;;
5343;SDS011;2694;48.954;8.928;2023-09-30T14:23:44;10.75;;;3.53;;
5343;SDS011;2694;48.954;8.928;2023-09-30T14:26:12;10.05;;;3.70;;
5343;SDS011;2694;48.954;8.928;2023-09-30T14:28:39;9.57;;;3.60;;
5343;SDS011;2694;48.954;8.928;2023-09-30T14:31:06;14.52;;;4.07;;
5343;SDS011;2694;48.954;8.928;2023-09-30T14:33:33;9.75;;;3.85;;
5343;SDS011;2694;48.954;8.928;2023-09-30T14:36:00;10.43;;;4.00;;
5343;SDS011;2694;48.954;8.928;2023-09-30T14:38:30;13.68;;;3.85;;
5343;SDS011;2694;48.954;8.928;2023-09-30T14:40:57;9.57;;;3.80;;
5343;SDS011;2694;48.954;8.928;2023-09-30T14:43:26;9.90;;;3.50;;
5343;SDS011;2694;48.954;8.928;2023-09-30T14:45:52;15.17;;;4.27;;
5343;SDS011;2694;48.954;8.928;2023-09-30T14:48:19;10.90;;;3.47;;
5343;SDS011;2694;48.954;8.928;2023-09-30T14:50:49;10.30;;;3.47;;
5343;SDS011;2694;48.954;8.928;2023-09-30T14:53:16;12.75;;;4.15;;
5343;SDS011;2694;48.954;8.928;2023-09-30T14:55:44;12.48;;;3.92;;
5343;SDS011;2694;48.954;8.928;2023-09-30T14:58:11;9.30;;;3.75;;
5343;SDS011;2694;48.954;8.928;2023-09-30T15:00:40;9.63;;;3.90;;
5343;SDS011;2694;48.954;8.928;2023-09-30T15:03:07;13.13;;;3.80;;
5343;SDS011;2694;48.954;8.928;2023-09-30T15:05:34;12.45;;;3.58;;
5343;SDS011;2694;48.954;8.928;2023-09-30T15:08:01;10.25;;;3.78;;
5343;SDS011;2694;48.954;8.928;2023-09-30T15:10:28;9.98;;;3.42;;
5343;SDS011;2694;48.954;8.928;2023-09-30T15:12:55;10.57;;;3.28;;
5343;SDS011;2694;48.954;8.928;2023-09-30T15:15:22;10.68;;;3.97;;
5343;SDS011;2694;48.954;8.928;2023-09-30T15:17:51;9.25;;;3.65;;
5343;SDS011;2694;48.954;8.928;2023-09-30T15:20:19;14.70;;;4.60;;
5343;SDS011;2694;48.954;8.928;2023-09-30T15:22:46;12.07;;;4.00;;
5343;SDS011;2694;48.954;8.928;2023-09-30T15:25:13;11.70;;;3.80;;
5343;SDS011;2694;48.954;8.928;2023-09-30T15:27:42;11.23;;;3.92;;
5343;SDS011;2694;48.954;8.928;2023-09-30T15:30:14;10.00;;;3.60;;
5343;SDS011;2694;48.954;8.928;2023-09-30T15:32:43;10.95;;;3.92;;